sensor_id;sensor_type;location;lat;lon;timestamp;temperature;humidity
56298;DHT22;42208;6.376;-10.782;2023-04-06T00:02:03;27.50;99.90
56298;DHT22;42208;6.376;-10.782;2023-04-06T00:04:31;27.40;99.90
56298;DHT22;42208;6.376;-10.782;2023-04-06T00:07:00;27.40;99.90
56298;DHT22;42208;6.376;-10.782;2023-04-06T00:09:28;27.40;99.90
56298;DHT22;42208;6.376;-10.782;2023-04-06T00:11:56;27.40;99.90
56298;DHT22;42208;6.376;-10.782;2023-04-06T00:14:25;27.40;99.90
56298;DHT22;42208;6.376;-10.782;2023-04-06T00:16:53;27.40;99.90
56298;DHT22;42208;6.376;-10.782;2023-04-06T00:19:21;27.40;99.90
56298;DHT22;42208;6.376;-10.782;2023-04-06T00:21:49;27.40;99.90
56298;DHT22;42208;6.376;-10.782;2023-04-06T00:24:18;27.30;99.90
56298;DHT22;42208;6.376;-10.782;2023-04-06T00:26:46;27.30;99.90
56298;DHT22;42208;6.376;-10.782;2023-04-06T00:29:14;27.30;99.90
56298;DHT22;42208;6.376;-10.782;2023-04-06T00:31:42;27.30;99.90
56298;DHT22;42208;6.376;-10.782;2023-04-06T00:34:11;27.30;99.90
56298;DHT22;42208;6.376;-10.782;2023-04-06T00:36:39;27.30;99.90
56298;DHT22;42208;6.376;-10.782;2023-04-06T00:39:07;27.20;99.90
56298;DHT22;42208;6.376;-10.782;2023-04-06T00:41:36;27.20;99.90
56298;DHT22;42208;6.376;-10.782;2023-04-06T00:44:05;27.20;99.90
56298;DHT22;42208;6.376;-10.782;2023-04-06T00:46:33;27.10;99.90
56298;DHT22;42208;6.376;-10.782;2023-04-06T01:01:33;27.10;99.90
56298;DHT22;42208;6.376;-10.782;2023-04-06T01:04:11;27.10;99.90
56298;DHT22;42208;6.376;-10.782;2023-04-06T01:06:41;27.10;99.90
56298;DHT22;42208;6.376;-10.782;2023-04-06T01:09:09;27.10;99.90
56298;DHT22;42208;6.376;-10.782;2023-04-06T01:11:38;27.10;99.90
56298;DHT22;42208;6.376;-10.782;2023-04-06T01:14:10;27.10;99.90
56298;DHT22;42208;6.376;-10.782;2023-04-06T01:16:52;27.00;99.90
56298;DHT22;42208;6.376;-10.782;2023-04-06T01:19:26;27.00;99.90
56298;DHT22;42208;6.376;-10.782;2023-04-06T01:21:55;27.00;99.90
56298;DHT22;42208;6.376;-10.782;2023-04-06T01:24:29;27.00;99.90
56298;DHT22;42208;6.376;-10.782;2023-04-06T01:27:06;27.00;99.90
56298;DHT22;42208;6.376;-10.782;2023-04-06T01:29:55;26.90;99.90
56298;DHT22;42208;6.376;-10.782;2023-04-06T01:32:46;26.90;99.90
56298;DHT22;42208;6.376;-10.782;2023-04-06T01:35:20;26.90;99.90
56298;DHT22;42208;6.376;-10.782;2023-04-06T01:38:05;26.90;99.90
56298;DHT22;42208;6.376;-10.782;2023-04-06T01:40:35;26.90;99.90
56298;DHT22;42208;6.376;-10.782;2023-04-06T01:43:03;26.90;99.90
56298;DHT22;42208;6.376;-10.782;2023-04-06T01:45:38;26.90;99.90
56298;DHT22;42208;6.376;-10.782;2023-04-06T01:48:16;26.90;99.90
56298;DHT22;42208;6.376;-10.782;2023-04-06T01:50:44;26.90;99.90
56298;DHT22;42208;6.376;-10.782;2023-04-06T01:53:17;26.90;99.90
56298;DHT22;42208;6.376;-10.782;2023-04-06T01:55:46;26.80;99.90
56298;DHT22;42208;6.376;-10.782;2023-04-06T01:58:29;26.80;99.90
56298;DHT22;42208;6.376;-10.782;2023-04-06T02:00:58;26.80;99.90
56298;DHT22;42208;6.376;-10.782;2023-04-06T02:03:31;26.70;99.90
56298;DHT22;42208;6.376;-10.782;2023-04-06T02:06:06;26.70;99.90
56298;DHT22;42208;6.376;-10.782;2023-04-06T02:08:38;26.70;99.90
56298;DHT22;42208;6.376;-10.782;2023-04-06T02:11:07;26.70;99.90
56298;DHT22;42208;6.376;-10.782;2023-04-06T02:13:46;26.70;99.90
56298;DHT22;42208;6.376;-10.782;2023-04-06T02:16:15;26.70;99.90
56298;DHT22;42208;6.376;-10.782;2023-04-06T02:18:45;26.70;99.90
56298;DHT22;42208;6.376;-10.782;2023-04-06T02:21:14;26.70;99.90
56298;DHT22;42208;6.376;-10.782;2023-04-06T02:23:42;26.70;99.90
56298;DHT22;42208;6.376;-10.782;2023-04-06T02:26:10;26.70;99.90
56298;DHT22;42208;6.376;-10.782;2023-04-06T02:28:38;26.70;99.90
56298;DHT22;42208;6.376;-10.782;2023-04-06T02:31:07;26.70;99.90
56298;DHT22;42208;6.376;-10.782;2023-04-06T02:33:36;26.70;99.90
56298;DHT22;42208;6.376;-10.782;2023-04-06T02:36:05;26.70;99.90
56298;DHT22;42208;6.376;-10.782;2023-04-06T02:38:34;26.70;99.90
56298;DHT22;42208;6.376;-10.782;2023-04-06T02:41:02;26.70;99.90
56298;DHT22;42208;6.376;-10.782;2023-04-06T02:43:32;26.70;99.90
56298;DHT22;42208;6.376;-10.782;2023-04-06T02:46:09;26.70;99.90
56298;DHT22;42208;6.376;-10.782;2023-04-06T02:48:38;26.70;99.90
56298;DHT22;42208;6.376;-10.782;2023-04-06T08:46:10;26.80;99.90
56298;DHT22;42208;6.376;-10.782;2023-04-06T08:48:41;26.90;99.90
56298;DHT22;42208;6.376;-10.782;2023-04-06T08:51:10;26.90;99.90
56298;DHT22;42208;6.376;-10.782;2023-04-06T08:53:39;27.00;99.90
56298;DHT22;42208;6.376;-10.782;2023-04-06T08:56:07;27.00;99.90
56298;DHT22;42208;6.376;-10.782;2023-04-06T08:58:39;27.00;99.90
56298;DHT22;42208;6.376;-10.782;2023-04-06T09:01:09;27.10;99.90
56298;DHT22;42208;6.376;-10.782;2023-04-06T09:03:40;27.10;99.90
56298;DHT22;42208;6.376;-10.782;2023-04-06T09:06:10;27.10;99.90
56298;DHT22;42208;6.376;-10.782;2023-04-06T09:08:40;27.20;99.90
56298;DHT22;42208;6.376;-10.782;2023-04-06T09:11:08;27.20;99.90
56298;DHT22;42208;6.376;-10.782;2023-04-06T09:13:48;27.30;99.90
56298;DHT22;42208;6.376;-10.782;2023-04-06T09:16:17;27.30;99.90
56298;DHT22;42208;6.376;-10.782;2023-04-06T09:18:46;27.30;99.90
56298;DHT22;42208;6.376;-10.782;2023-04-06T09:21:17;27.40;99.90
56298;DHT22;42208;6.376;-10.782;2023-04-06T09:24:00;27.40;99.90
56298;DHT22;42208;6.376;-10.782;2023-04-06T09:26:30;27.50;99.90
56298;DHT22;42208;6.376;-10.782;2023-04-06T09:28:58;27.50;99.90
56298;DHT22;42208;6.376;-10.782;2023-04-06T09:31:30;27.60;99.90
56298;DHT22;42208;6.376;-10.782;2023-04-06T09:34:00;27.70;99.90
56298;DHT22;42208;6.376;-10.782;2023-04-06T09:36:36;27.80;99.90
56298;DHT22;42208;6.376;-10.782;2023-04-06T09:39:05;27.90;99.90
56298;DHT22;42208;6.376;-10.782;2023-04-06T09:41:36;28.00;99.90
56298;DHT22;42208;6.376;-10.782;2023-04-06T09:44:08;28.00;99.90
56298;DHT22;42208;6.376;-10.782;2023-04-06T09:46:40;28.10;99.90
56298;DHT22;42208;6.376;-10.782;2023-04-06T09:49:27;28.20;99.90
56298;DHT22;42208;6.376;-10.782;2023-04-06T09:52:03;28.40;99.90
56298;DHT22;42208;6.376;-10.782;2023-04-06T09:54:32;28.40;99.90
56298;DHT22;42208;6.376;-10.782;2023-04-06T09:57:29;28.50;99.90
56298;DHT22;42208;6.376;-10.782;2023-04-06T10:00:06;28.60;99.90
56298;DHT22;42208;6.376;-10.782;2023-04-06T10:05:37;28.70;99.90
56298;DHT22;42208;6.376;-10.782;2023-04-06T10:08:13;28.70;99.90
56298;DHT22;42208;6.376;-10.782;2023-04-06T10:10:42;28.70;99.90
56298;DHT22;42208;6.376;-10.782;2023-04-06T10:13:11;28.70;99.90
56298;DHT22;42208;6.376;-10.782;2023-04-06T10:15:40;28.80;99.90
56298;DHT22;42208;6.376;-10.782;2023-04-06T10:18:11;28.80;99.90
56298;DHT22;42208;6.376;-10.782;2023-04-06T10:20:51;28.80;99.90
56298;DHT22;42208;6.376;-10.782;2023-04-06T10:25:59;28.80;99.90
56298;DHT22;42208;6.376;-10.782;2023-04-06T10:28:35;28.80;99.90
56298;DHT22;42208;6.376;-10.782;2023-04-06T10:31:07;28.90;99.90
56298;DHT22;42208;6.376;-10.782;2023-04-06T10:33:35;28.90;99.90
56298;DHT22;42208;6.376;-10.782;2023-04-06T10:36:14;28.90;99.90
56298;DHT22;42208;6.376;-10.782;2023-04-06T10:38:43;29.00;99.90
56298;DHT22;42208;6.376;-10.782;2023-04-06T10:41:12;29.10;99.90
56298;DHT22;42208;6.376;-10.782;2023-04-06T10:43:42;29.10;99.90
56298;DHT22;42208;6.376;-10.782;2023-04-06T10:46:10;29.20;99.90
56298;DHT22;42208;6.376;-10.782;2023-04-06T10:48:43;29.20;99.90
56298;DHT22;42208;6.376;-10.782;2023-04-06T10:51:13;29.20;99.90
56298;DHT22;42208;6.376;-10.782;2023-04-06T10:53:47;29.20;99.90
56298;DHT22;42208;6.376;-10.782;2023-04-06T10:56:17;29.20;99.90
56298;DHT22;42208;6.376;-10.782;2023-04-06T10:58:47;29.30;99.90
56298;DHT22;42208;6.376;-10.782;2023-04-06T11:01:20;29.40;99.90
56298;DHT22;42208;6.376;-10.782;2023-04-06T11:03:52;29.40;99.90
56298;DHT22;42208;6.376;-10.782;2023-04-06T11:06:25;29.50;99.90
56298;DHT22;42208;6.376;-10.782;2023-04-06T11:08:55;29.60;99.90
56298;DHT22;42208;6.376;-10.782;2023-04-06T11:11:24;29.60;99.90
56298;DHT22;42208;6.376;-10.782;2023-04-06T11:13:54;29.60;99.90
56298;DHT22;42208;6.376;-10.782;2023-04-06T11:16:25;29.60;99.90
56298;DHT22;42208;6.376;-10.782;2023-04-06T11:19:00;29.70;99.90
56298;DHT22;42208;6.376;-10.782;2023-04-06T11:21:48;29.80;99.90
56298;DHT22;42208;6.376;-10.782;2023-04-06T11:24:21;29.70;99.90
56298;DHT22;42208;6.376;-10.782;2023-04-06T11:26:55;29.80;99.90
56298;DHT22;42208;6.376;-10.782;2023-04-06T11:29:26;29.80;99.90
56298;DHT22;42208;6.376;-10.782;2023-04-06T11:32:03;29.80;99.90
56298;DHT22;42208;6.376;-10.782;2023-04-06T11:34:33;29.80;99.90
56298;DHT22;42208;6.376;-10.782;2023-04-06T11:37:03;29.90;99.90
56298;DHT22;42208;6.376;-10.782;2023-04-06T11:39:38;29.80;99.90
56298;DHT22;42208;6.376;-10.782;2023-04-06T11:42:10;29.80;99.90
56298;DHT22;42208;6.376;-10.782;2023-04-06T11:44:45;29.80;99.90
56298;DHT22;42208;6.376;-10.782;2023-04-06T11:47:13;29.80;99.90
56298;DHT22;42208;6.376;-10.782;2023-04-06T11:49:44;29.80;99.90
56298;DHT22;42208;6.376;-10.782;2023-04-06T11:52:22;29.80;99.90
56298;DHT22;42208;6.376;-10.782;2023-04-06T11:54:52;29.90;99.90
56298;DHT22;42208;6.376;-10.782;2023-04-06T11:57:22;30.00;99.90
56298;DHT22;42208;6.376;-10.782;2023-04-06T11:59:50;30.00;99.90
56298;DHT22;42208;6.376;-10.782;2023-04-06T12:02:18;30.00;99.90
56298;DHT22;42208;6.376;-10.782;2023-04-06T12:04:47;30.00;99.90
56298;DHT22;42208;6.376;-10.782;2023-04-06T12:07:15;30.00;99.90
56298;DHT22;42208;6.376;-10.782;2023-04-06T12:09:43;30.00;99.90
56298;DHT22;42208;6.376;-10.782;2023-04-06T12:12:12;30.00;99.90
56298;DHT22;42208;6.376;-10.782;2023-04-06T12:14:40;30.00;99.90
56298;DHT22;42208;6.376;-10.782;2023-04-06T12:17:08;30.10;99.90
56298;DHT22;42208;6.376;-10.782;2023-04-06T12:19:36;30.10;99.90
56298;DHT22;42208;6.376;-10.782;2023-04-06T12:22:05;30.10;99.90
56298;DHT22;42208;6.376;-10.782;2023-04-06T12:24:33;30.10;99.90
56298;DHT22;42208;6.376;-10.782;2023-04-06T12:27:01;30.20;99.90
56298;DHT22;42208;6.376;-10.782;2023-04-06T12:29:38;30.20;99.90
56298;DHT22;42208;6.376;-10.782;2023-04-06T12:32:06;30.20;99.90
56298;DHT22;42208;6.376;-10.782;2023-04-06T12:34:35;30.20;99.90
56298;DHT22;42208;6.376;-10.782;2023-04-06T12:37:03;30.20;99.90
56298;DHT22;42208;6.376;-10.782;2023-04-06T12:39:31;30.20;99.90
56298;DHT22;42208;6.376;-10.782;2023-04-06T12:42:00;30.20;99.90
56298;DHT22;42208;6.376;-10.782;2023-04-06T12:44:29;30.30;99.90
56298;DHT22;42208;6.376;-10.782;2023-04-06T12:46:57;30.20;99.90
56298;DHT22;42208;6.376;-10.782;2023-04-06T12:49:26;30.20;99.90
56298;DHT22;42208;6.376;-10.782;2023-04-06T12:51:54;30.20;99.90
56298;DHT22;42208;6.376;-10.782;2023-04-06T12:54:23;30.30;99.90
56298;DHT22;42208;6.376;-10.782;2023-04-06T12:56:51;30.30;99.90
56298;DHT22;42208;6.376;-10.782;2023-04-06T12:59:19;30.30;99.90
56298;DHT22;42208;6.376;-10.782;2023-04-06T13:01:47;30.30;99.90
56298;DHT22;42208;6.376;-10.782;2023-04-06T13:04:16;30.30;99.90
56298;DHT22;42208;6.376;-10.782;2023-04-06T13:06:44;30.30;99.90
56298;DHT22;42208;6.376;-10.782;2023-04-06T13:09:12;30.20;99.90
56298;DHT22;42208;6.376;-10.782;2023-04-06T13:11:40;30.20;99.90
56298;DHT22;42208;6.376;-10.782;2023-04-06T13:14:09;30.30;99.90
56298;DHT22;42208;6.376;-10.782;2023-04-06T13:16:37;30.40;99.90
56298;DHT22;42208;6.376;-10.782;2023-04-06T13:19:05;30.40;99.90
56298;DHT22;42208;6.376;-10.782;2023-04-06T13:21:33;30.40;99.90
56298;DHT22;42208;6.376;-10.782;2023-04-06T13:24:01;30.30;99.90
56298;DHT22;42208;6.376;-10.782;2023-04-06T13:26:29;30.10;99.90
56298;DHT22;42208;6.376;-10.782;2023-04-06T13:29:00;30.10;99.90
56298;DHT22;42208;6.376;-10.782;2023-04-06T13:31:28;30.20;99.90
56298;DHT22;42208;6.376;-10.782;2023-04-06T13:33:56;30.30;99.90
56298;DHT22;42208;6.376;-10.782;2023-04-06T13:36:25;30.30;99.90
56298;DHT22;42208;6.376;-10.782;2023-04-06T13:38:53;30.40;99.90
56298;DHT22;42208;6.376;-10.782;2023-04-06T13:41:23;30.40;99.90
56298;DHT22;42208;6.376;-10.782;2023-04-06T13:43:52;30.40;99.90
56298;DHT22;42208;6.376;-10.782;2023-04-06T13:46:20;30.40;99.90
56298;DHT22;42208;6.376;-10.782;2023-04-06T13:48:48;30.40;99.90
56298;DHT22;42208;6.376;-10.782;2023-04-06T13:51:16;30.50;99.90
56298;DHT22;42208;6.376;-10.782;2023-04-06T13:53:45;30.40;99.90
56298;DHT22;42208;6.376;-10.782;2023-04-06T13:56:13;30.40;99.90
56298;DHT22;42208;6.376;-10.782;2023-04-06T13:58:44;30.40;99.90
56298;DHT22;42208;6.376;-10.782;2023-04-06T14:01:12;30.40;99.90
56298;DHT22;42208;6.376;-10.782;2023-04-06T14:03:41;30.40;99.90
56298;DHT22;42208;6.376;-10.782;2023-04-06T14:06:11;30.40;99.90
56298;DHT22;42208;6.376;-10.782;2023-04-06T14:08:56;30.40;99.90
56298;DHT22;42208;6.376;-10.782;2023-04-06T14:11:24;30.30;99.90
56298;DHT22;42208;6.376;-10.782;2023-04-06T14:13:52;30.40;99.90
56298;DHT22;42208;6.376;-10.782;2023-04-06T14:16:24;30.60;99.90
56298;DHT22;42208;6.376;-10.782;2023-04-06T14:18:53;30.80;99.90
56298;DHT22;42208;6.376;-10.782;2023-04-06T14:21:21;30.70;99.90
56298;DHT22;42208;6.376;-10.782;2023-04-06T14:23:49;30.70;99.90
56298;DHT22;42208;6.376;-10.782;2023-04-06T14:26:18;30.70;99.90
56298;DHT22;42208;6.376;-10.782;2023-04-06T14:28:46;30.80;99.90
56298;DHT22;42208;6.376;-10.782;2023-04-06T14:31:15;30.80;99.90
56298;DHT22;42208;6.376;-10.782;2023-04-06T14:33:44;30.70;99.90
56298;DHT22;42208;6.376;-10.782;2023-04-06T14:36:13;30.70;99.90
56298;DHT22;42208;6.376;-10.782;2023-04-06T14:38:41;30.70;99.90
56298;DHT22;42208;6.376;-10.782;2023-04-06T14:41:14;30.60;99.90
56298;DHT22;42208;6.376;-10.782;2023-04-06T14:43:42;30.60;99.90
56298;DHT22;42208;6.376;-10.782;2023-04-06T14:46:11;30.60;99.90
56298;DHT22;42208;6.376;-10.782;2023-04-06T14:48:39;30.70;99.90
56298;DHT22;42208;6.376;-10.782;2023-04-06T14:51:08;30.80;99.90
56298;DHT22;42208;6.376;-10.782;2023-04-06T14:53:36;30.70;99.90
56298;DHT22;42208;6.376;-10.782;2023-04-06T14:56:04;30.70;99.90
56298;DHT22;42208;6.376;-10.782;2023-04-06T14:58:33;30.70;99.90
56298;DHT22;42208;6.376;-10.782;2023-04-06T15:01:02;30.80;99.90
56298;DHT22;42208;6.376;-10.782;2023-04-06T15:03:30;30.70;99.90
56298;DHT22;42208;6.376;-10.782;2023-04-06T15:05:58;30.70;99.90
56298;DHT22;42208;6.376;-10.782;2023-04-06T15:08:26;30.70;99.90
56298;DHT22;42208;6.376;-10.782;2023-04-06T15:10:59;30.70;99.90
56298;DHT22;42208;6.376;-10.782;2023-04-06T15:13:27;30.60;99.90
56298;DHT22;42208;6.376;-10.782;2023-04-06T15:15:55;30.50;99.90
56298;DHT22;42208;6.376;-10.782;2023-04-06T15:18:25;30.70;99.90
56298;DHT22;42208;6.376;-10.782;2023-04-06T15:20:53;30.70;99.90
56298;DHT22;42208;6.376;-10.782;2023-04-06T15:23:22;30.80;99.90
56298;DHT22;42208;6.376;-10.782;2023-04-06T15:25:50;30.80;99.90
56298;DHT22;42208;6.376;-10.782;2023-04-06T15:28:18;30.70;99.90
56298;DHT22;42208;6.376;-10.782;2023-04-06T15:30:46;30.60;99.90
56298;DHT22;42208;6.376;-10.782;2023-04-06T15:33:14;30.60;99.90
56298;DHT22;42208;6.376;-10.782;2023-04-06T15:35:44;30.50;99.90
56298;DHT22;42208;6.376;-10.782;2023-04-06T15:38:13;30.40;99.90
56298;DHT22;42208;6.376;-10.782;2023-04-06T15:40:47;30.30;99.90
56298;DHT22;42208;6.376;-10.782;2023-04-06T15:43:16;30.20;99.90
56298;DHT22;42208;6.376;-10.782;2023-04-06T15:45:44;30.20;99.90
56298;DHT22;42208;6.376;-10.782;2023-04-06T15:48:12;30.10;99.90
56298;DHT22;42208;6.376;-10.782;2023-04-06T15:50:41;30.30;99.90
56298;DHT22;42208;6.376;-10.782;2023-04-06T15:53:09;30.40;99.90
56298;DHT22;42208;6.376;-10.782;2023-04-06T15:55:37;30.70;99.90
56298;DHT22;42208;6.376;-10.782;2023-04-06T15:58:05;30.90;99.90
56298;DHT22;42208;6.376;-10.782;2023-04-06T16:00:33;31.00;99.90
56298;DHT22;42208;6.376;-10.782;2023-04-06T16:03:02;31.20;99.90
56298;DHT22;42208;6.376;-10.782;2023-04-06T16:05:30;31.30;99.90
56298;DHT22;42208;6.376;-10.782;2023-04-06T16:08:02;31.60;99.90
56298;DHT22;42208;6.376;-10.782;2023-04-06T16:10:30;31.70;99.90
56298;DHT22;42208;6.376;-10.782;2023-04-06T16:12:59;31.70;99.90
56298;DHT22;42208;6.376;-10.782;2023-04-06T16:15:27;32.00;99.90
56298;DHT22;42208;6.376;-10.782;2023-04-06T16:17:55;32.00;99.90
56298;DHT22;42208;6.376;-10.782;2023-04-06T16:20:26;32.30;99.90
56298;DHT22;42208;6.376;-10.782;2023-04-06T16:22:54;32.30;99.90
56298;DHT22;42208;6.376;-10.782;2023-04-06T16:25:23;32.50;99.90
56298;DHT22;42208;6.376;-10.782;2023-04-06T16:27:51;32.60;99.90
56298;DHT22;42208;6.376;-10.782;2023-04-06T16:30:19;32.40;99.90
56298;DHT22;42208;6.376;-10.782;2023-04-06T16:32:47;32.60;99.90
56298;DHT22;42208;6.376;-10.782;2023-04-06T16:35:16;32.40;99.90
56298;DHT22;42208;6.376;-10.782;2023-04-06T16:37:44;32.60;99.90
56298;DHT22;42208;6.376;-10.782;2023-04-06T16:40:12;32.50;99.90
56298;DHT22;42208;6.376;-10.782;2023-04-06T16:42:43;32.50;99.90
56298;DHT22;42208;6.376;-10.782;2023-04-06T16:45:12;32.40;99.90
56298;DHT22;42208;6.376;-10.782;2023-04-06T16:47:40;32.60;99.90
56298;DHT22;42208;6.376;-10.782;2023-04-06T16:50:09;32.60;99.90
56298;DHT22;42208;6.376;-10.782;2023-04-06T16:52:37;32.90;99.90
56298;DHT22;42208;6.376;-10.782;2023-04-06T16:55:06;32.90;99.90
56298;DHT22;42208;6.376;-10.782;2023-04-06T16:57:34;32.50;99.90
56298;DHT22;42208;6.376;-10.782;2023-04-06T17:00:04;32.50;99.90
56298;DHT22;42208;6.376;-10.782;2023-04-06T17:02:32;32.60;99.90
56298;DHT22;42208;6.376;-10.782;2023-04-06T17:05:01;32.50;99.90
56298;DHT22;42208;6.376;-10.782;2023-04-06T17:07:29;32.00;99.90
56298;DHT22;42208;6.376;-10.782;2023-04-06T17:10:01;32.20;99.90
56298;DHT22;42208;6.376;-10.782;2023-04-06T17:12:29;32.40;99.90
56298;DHT22;42208;6.376;-10.782;2023-04-06T17:14:58;32.40;99.90
56298;DHT22;42208;6.376;-10.782;2023-04-06T17:17:26;32.40;99.90
56298;DHT22;42208;6.376;-10.782;2023-04-06T17:19:54;32.50;99.90
56298;DHT22;42208;6.376;-10.782;2023-04-06T17:22:23;32.50;99.90
56298;DHT22;42208;6.376;-10.782;2023-04-06T17:24:51;32.30;99.90
56298;DHT22;42208;6.376;-10.782;2023-04-06T17:27:19;31.80;99.90
56298;DHT22;42208;6.376;-10.782;2023-04-06T17:29:47;31.70;99.90
56298;DHT22;42208;6.376;-10.782;2023-04-06T17:32:15;31.70;99.90
56298;DHT22;42208;6.376;-10.782;2023-04-06T17:34:43;31.50;99.90
56298;DHT22;42208;6.376;-10.782;2023-04-06T17:37:11;31.20;99.90
56298;DHT22;42208;6.376;-10.782;2023-04-06T17:39:40;31.10;99.90
56298;DHT22;42208;6.376;-10.782;2023-04-06T17:42:08;30.80;99.90
56298;DHT22;42208;6.376;-10.782;2023-04-06T17:44:36;30.80;99.90
56298;DHT22;42208;6.376;-10.782;2023-04-06T17:47:04;30.80;99.90
56298;DHT22;42208;6.376;-10.782;2023-04-06T17:49:32;30.60;99.90
56298;DHT22;42208;6.376;-10.782;2023-04-06T17:52:01;30.60;99.90
56298;DHT22;42208;6.376;-10.782;2023-04-06T17:54:29;30.40;99.90
56298;DHT22;42208;6.376;-10.782;2023-04-06T17:56:57;30.30;99.90
56298;DHT22;42208;6.376;-10.782;2023-04-06T17:59:25;30.20;99.90
56298;DHT22;42208;6.376;-10.782;2023-04-06T18:01:54;30.20;99.90
56298;DHT22;42208;6.376;-10.782;2023-04-06T18:04:22;30.20;99.90
56298;DHT22;42208;6.376;-10.782;2023-04-06T18:06:51;30.10;99.90
56298;DHT22;42208;6.376;-10.782;2023-04-06T18:09:22;29.90;99.90
56298;DHT22;42208;6.376;-10.782;2023-04-06T18:11:51;29.80;99.90
56298;DHT22;42208;6.376;-10.782;2023-04-06T18:14:21;29.70;99.90
56298;DHT22;42208;6.376;-10.782;2023-04-06T18:16:49;29.80;99.90
56298;DHT22;42208;6.376;-10.782;2023-04-06T18:19:19;29.80;99.90
56298;DHT22;42208;6.376;-10.782;2023-04-06T18:21:47;29.90;99.90
56298;DHT22;42208;6.376;-10.782;2023-04-06T18:24:16;30.00;99.90
56298;DHT22;42208;6.376;-10.782;2023-04-06T18:27:04;29.80;99.90
56298;DHT22;42208;6.376;-10.782;2023-04-06T18:29:32;29.70;99.90
56298;DHT22;42208;6.376;-10.782;2023-04-06T18:32:00;29.70;99.90
56298;DHT22;42208;6.376;-10.782;2023-04-06T18:34:29;29.60;99.90
56298;DHT22;42208;6.376;-10.782;2023-04-06T18:36:57;29.40;99.90
56298;DHT22;42208;6.376;-10.782;2023-04-06T18:39:26;29.30;99.90
56298;DHT22;42208;6.376;-10.782;2023-04-06T18:41:54;29.20;99.90
56298;DHT22;42208;6.376;-10.782;2023-04-06T18:44:22;29.20;99.90
56298;DHT22;42208;6.376;-10.782;2023-04-06T18:46:51;29.10;99.90
56298;DHT22;42208;6.376;-10.782;2023-04-06T18:49:22;29.10;99.90
56298;DHT22;42208;6.376;-10.782;2023-04-06T18:51:50;29.00;99.90
56298;DHT22;42208;6.376;-10.782;2023-04-06T18:54:18;29.00;99.90
56298;DHT22;42208;6.376;-10.782;2023-04-06T18:56:47;29.00;99.90
56298;DHT22;42208;6.376;-10.782;2023-04-06T18:59:16;28.90;99.90
56298;DHT22;42208;6.376;-10.782;2023-04-06T19:01:44;28.90;99.90
56298;DHT22;42208;6.376;-10.782;2023-04-06T19:04:12;28.90;99.90
56298;DHT22;42208;6.376;-10.782;2023-04-06T19:06:41;28.90;99.90
56298;DHT22;42208;6.376;-10.782;2023-04-06T19:09:09;28.90;99.90
56298;DHT22;42208;6.376;-10.782;2023-04-06T19:11:39;28.90;99.90
56298;DHT22;42208;6.376;-10.782;2023-04-06T19:14:09;29.00;99.90
56298;DHT22;42208;6.376;-10.782;2023-04-06T19:16:40;28.90;99.90
56298;DHT22;42208;6.376;-10.782;2023-04-06T19:19:08;28.90;99.90
56298;DHT22;42208;6.376;-10.782;2023-04-06T19:21:36;28.90;99.90
56298;DHT22;42208;6.376;-10.782;2023-04-06T19:24:05;28.90;99.90
56298;DHT22;42208;6.376;-10.782;2023-04-06T19:26:33;28.90;99.90
56298;DHT22;42208;6.376;-10.782;2023-04-06T19:29:01;28.90;99.90
56298;DHT22;42208;6.376;-10.782;2023-04-06T19:31:29;29.00;99.90
56298;DHT22;42208;6.376;-10.782;2023-04-06T19:33:58;28.90;99.90
56298;DHT22;42208;6.376;-10.782;2023-04-06T19:36:31;28.90;99.90
56298;DHT22;42208;6.376;-10.782;2023-04-06T19:38:59;29.00;99.90
56298;DHT22;42208;6.376;-10.782;2023-04-06T19:41:27;28.90;99.90
56298;DHT22;42208;6.376;-10.782;2023-04-06T19:43:55;28.90;99.90
56298;DHT22;42208;6.376;-10.782;2023-04-06T19:46:23;28.90;99.90
56298;DHT22;42208;6.376;-10.782;2023-04-06T19:48:52;28.90;99.90
56298;DHT22;42208;6.376;-10.782;2023-04-06T19:51:20;28.90;99.90
56298;DHT22;42208;6.376;-10.782;2023-04-06T19:53:48;28.80;99.90
56298;DHT22;42208;6.376;-10.782;2023-04-06T19:56:16;28.80;99.90
56298;DHT22;42208;6.376;-10.782;2023-04-06T19:58:44;28.80;99.90
56298;DHT22;42208;6.376;-10.782;2023-04-06T20:01:13;28.80;99.90
56298;DHT22;42208;6.376;-10.782;2023-04-06T20:03:41;28.80;99.90
56298;DHT22;42208;6.376;-10.782;2023-04-06T20:06:09;28.80;99.90
56298;DHT22;42208;6.376;-10.782;2023-04-06T20:08:37;28.80;99.90
56298;DHT22;42208;6.376;-10.782;2023-04-06T20:11:06;28.80;99.90
56298;DHT22;42208;6.376;-10.782;2023-04-06T20:13:35;28.70;99.90
56298;DHT22;42208;6.376;-10.782;2023-04-06T20:16:03;28.80;99.90
56298;DHT22;42208;6.376;-10.782;2023-04-06T20:18:32;28.80;99.90
56298;DHT22;42208;6.376;-10.782;2023-04-06T20:21:01;28.80;99.90
56298;DHT22;42208;6.376;-10.782;2023-04-06T20:23:29;28.70;99.90
56298;DHT22;42208;6.376;-10.782;2023-04-06T20:25:57;28.70;99.90
56298;DHT22;42208;6.376;-10.782;2023-04-06T20:28:26;28.70;99.90
56298;DHT22;42208;6.376;-10.782;2023-04-06T20:30:54;28.70;99.90
56298;DHT22;42208;6.376;-10.782;2023-04-06T20:33:22;28.70;99.90
56298;DHT22;42208;6.376;-10.782;2023-04-06T20:35:57;28.70;99.90
56298;DHT22;42208;6.376;-10.782;2023-04-06T20:38:27;28.70;99.90
56298;DHT22;42208;6.376;-10.782;2023-04-06T20:40:57;28.70;99.90
56298;DHT22;42208;6.376;-10.782;2023-04-06T20:43:26;28.70;99.90
56298;DHT22;42208;6.376;-10.782;2023-04-06T20:45:55;28.70;99.90
56298;DHT22;42208;6.376;-10.782;2023-04-06T20:48:24;28.70;99.90
56298;DHT22;42208;6.376;-10.782;2023-04-06T20:50:52;28.70;99.90
56298;DHT22;42208;6.376;-10.782;2023-04-06T20:53:21;28.70;99.90
56298;DHT22;42208;6.376;-10.782;2023-04-06T20:55:49;28.70;99.90
56298;DHT22;42208;6.376;-10.782;2023-04-06T20:58:17;28.60;99.90
56298;DHT22;42208;6.376;-10.782;2023-04-06T21:00:47;28.60;99.90
56298;DHT22;42208;6.376;-10.782;2023-04-06T21:03:16;28.60;99.90
56298;DHT22;42208;6.376;-10.782;2023-04-06T21:05:53;28.50;99.90
56298;DHT22;42208;6.376;-10.782;2023-04-06T21:08:22;28.40;99.90
56298;DHT22;42208;6.376;-10.782;2023-04-06T21:10:50;28.40;99.90
56298;DHT22;42208;6.376;-10.782;2023-04-06T21:13:18;28.30;99.90
56298;DHT22;42208;6.376;-10.782;2023-04-06T21:15:47;28.30;99.90
56298;DHT22;42208;6.376;-10.782;2023-04-06T21:18:15;28.30;99.90
56298;DHT22;42208;6.376;-10.782;2023-04-06T21:20:43;28.30;99.90
56298;DHT22;42208;6.376;-10.782;2023-04-06T21:23:12;28.20;99.90
56298;DHT22;42208;6.376;-10.782;2023-04-06T21:25:40;28.30;99.90
56298;DHT22;42208;6.376;-10.782;2023-04-06T21:28:08;28.20;99.90
56298;DHT22;42208;6.376;-10.782;2023-04-06T21:30:37;28.20;99.90
56298;DHT22;42208;6.376;-10.782;2023-04-06T21:33:06;28.30;99.90
56298;DHT22;42208;6.376;-10.782;2023-04-06T21:35:38;28.30;99.90
56298;DHT22;42208;6.376;-10.782;2023-04-06T21:38:07;28.20;99.90
56298;DHT22;42208;6.376;-10.782;2023-04-06T21:40:35;28.20;99.90
56298;DHT22;42208;6.376;-10.782;2023-04-06T21:43:04;28.20;99.90
56298;DHT22;42208;6.376;-10.782;2023-04-06T21:45:33;28.10;99.90